createdAt,value
2023-02-06T00:02:16.969Z,17.40
2023-02-06T00:04:48.969Z,18.50
2023-02-06T00:07:20.805Z,14.60
2023-02-06T00:09:53.076Z,20.40
2023-02-06T00:12:24.990Z,19.10
2023-02-06T00:14:57.130Z,17.20
2023-02-06T00:17:29.372Z,17.80
2023-02-06T00:20:01.327Z,17.00
2023-02-06T00:22:33.395Z,17.70
2023-02-06T00:25:06.925Z,20.30
2023-02-06T00:27:38.766Z,13.60
2023-02-06T00:30:11.964Z,18.50
2023-02-06T00:32:43.866Z,19.20
2023-02-06T00:35:15.992Z,14.10
2023-02-06T00:37:47.865Z,20.10
2023-02-06T00:40:20.356Z,20.30
2023-02-06T00:42:52.148Z,18.70
2023-02-06T00:45:24.399Z,25.10
2023-02-06T00:47:56.342Z,21.80
2023-02-06T00:50:28.429Z,23.70
2023-02-06T00:53:00.529Z,19.10
2023-02-06T00:55:32.619Z,16.20
2023-02-06T00:58:04.524Z,20.30
2023-02-06T01:00:36.954Z,23.90
2023-02-06T01:03:08.839Z,22.00
2023-02-06T01:05:41.199Z,24.90
2023-02-06T01:08:13.018Z,22.90
2023-02-06T01:10:47.243Z,21.80
2023-02-06T01:13:19.322Z,22.50
2023-02-06T01:15:51.897Z,21.90
2023-02-06T01:18:23.752Z,24.80
2023-02-06T01:20:55.953Z,22.50
2023-02-06T01:23:27.856Z,22.20
2023-02-06T01:26:01.984Z,24.60
2023-02-06T01:31:06.064Z,27.40
2023-02-06T01:33:37.959Z,23.80
2023-02-06T01:36:10.963Z,23.00
2023-02-06T01:38:43.600Z,25.30
2023-02-06T01:41:16.605Z,28.20
2023-02-06T01:44:06.946Z,29.10
2023-02-06T01:46:39.687Z,25.30
2023-02-06T01:49:15.235Z,14.40
2023-02-06T01:51:47.840Z,16.60
2023-02-06T01:54:20.045Z,17.80
2023-02-06T01:56:56.577Z,15.60
2023-02-06T01:59:29.220Z,15.50
2023-02-06T02:02:01.358Z,10.70
2023-02-06T02:04:34.894Z,9.30
2023-02-06T02:07:12.260Z,12.30
2023-02-06T02:09:44.551Z,17.10
2023-02-06T02:12:16.707Z,13.60
2023-02-06T02:14:49.701Z,9.20
2023-02-06T02:17:31.190Z,15.40
2023-02-06T02:20:38.958Z,18.10
2023-02-06T02:23:33.109Z,20.40
2023-02-06T02:26:24.848Z,21.60
2023-02-06T02:29:31.640Z,14.80
2023-02-06T02:32:26.344Z,22.00
2023-02-06T02:37:43.256Z,11.90
2023-02-06T02:40:22.868Z,21.70
2023-02-06T02:43:02.991Z,22.20
2023-02-06T02:45:40.094Z,16.00
2023-02-06T02:48:17.618Z,20.60
2023-02-06T02:50:50.281Z,21.60
2023-02-06T02:53:22.191Z,19.00
2023-02-06T02:55:54.194Z,26.90
2023-02-06T02:58:28.855Z,24.40
2023-02-06T03:01:03.985Z,16.40
2023-02-06T03:03:37.697Z,22.90
2023-02-06T03:06:35.757Z,21.90
2023-02-06T03:09:13.140Z,16.80
2023-02-06T03:11:49.314Z,20.00
2023-02-06T03:14:28.540Z,20.40
2023-02-06T03:17:04.218Z,24.20
2023-02-06T03:19:39.261Z,21.10
2023-02-06T03:22:12.059Z,23.30
2023-02-06T03:24:43.910Z,25.80
2023-02-06T03:27:18.663Z,30.00
2023-02-06T03:29:52.994Z,21.40
2023-02-06T03:32:28.663Z,18.60
2023-02-06T03:35:03.012Z,28.30
2023-02-06T03:37:35.339Z,16.50
2023-02-06T03:40:08.960Z,23.00
2023-02-06T03:42:46.147Z,27.10
2023-02-06T03:45:21.206Z,20.90
2023-02-06T03:47:54.431Z,23.30
2023-02-06T03:50:27.262Z,26.70
2023-02-06T03:53:00.764Z,29.20
2023-02-06T03:55:32.734Z,24.50
2023-02-06T03:58:07.796Z,19.50
2023-02-06T04:00:40.728Z,26.10
2023-02-06T04:03:13.262Z,25.80
2023-02-06T04:05:45.120Z,31.20
2023-02-06T04:08:17.397Z,31.70
2023-02-06T04:10:49.331Z,30.60
2023-02-06T04:13:21.440Z,27.60
2023-02-06T04:15:53.391Z,27.90
2023-02-06T04:18:25.568Z,27.10
2023-02-06T04:20:57.387Z,27.50
2023-02-06T04:23:29.434Z,30.00
2023-02-06T04:26:01.302Z,24.90
2023-02-06T04:28:33.275Z,26.30
2023-02-06T04:31:05.366Z,32.80
2023-02-06T04:33:37.533Z,32.10
2023-02-06T04:36:10.076Z,33.90
2023-02-06T04:38:42.292Z,32.60
2023-02-06T04:41:14.220Z,33.50
2023-02-06T04:43:46.541Z,34.10
2023-02-06T04:46:18.431Z,33.60
2023-02-06T04:48:50.591Z,34.30
2023-02-06T04:51:22.376Z,33.90
2023-02-06T04:53:54.510Z,32.70
2023-02-06T04:56:26.725Z,34.90
2023-02-06T04:58:59.004Z,32.40
2023-02-06T05:01:30.959Z,34.30
2023-02-06T05:04:02.967Z,25.20
2023-02-06T05:06:34.880Z,28.50
2023-02-06T05:09:08.145Z,33.00
2023-02-06T05:11:40.077Z,33.20
2023-02-06T05:14:12.162Z,28.10
2023-02-06T05:16:43.985Z,22.30
2023-02-06T05:19:16.255Z,31.20
2023-02-06T05:21:48.062Z,29.70
2023-02-06T05:24:20.157Z,29.70
2023-02-06T05:26:52.135Z,35.40
2023-02-06T05:29:24.358Z,20.90
2023-02-06T05:31:56.413Z,21.20
2023-02-06T05:34:28.756Z,26.00
2023-02-06T05:37:00.717Z,31.80
2023-02-06T05:39:32.882Z,32.30
2023-02-06T05:42:04.849Z,29.40
2023-02-06T05:44:37.239Z,29.30
2023-02-06T05:47:12.600Z,30.40
2023-02-06T05:49:45.184Z,16.30
2023-02-06T05:52:17.380Z,28.80
2023-02-06T05:54:49.491Z,30.30
2023-02-06T05:57:21.469Z,29.80
2023-02-06T05:59:53.552Z,28.40
2023-02-06T06:02:25.391Z,25.10
2023-02-06T06:04:57.777Z,27.80
2023-02-06T06:07:29.723Z,32.50
2023-02-06T06:10:02.024Z,24.60
2023-02-06T06:12:33.998Z,31.40
2023-02-06T06:15:06.752Z,26.10
2023-02-06T06:17:38.615Z,14.00
2023-02-06T06:20:12.211Z,21.00
2023-02-06T06:22:44.093Z,20.70
2023-02-06T06:25:16.129Z,28.40
2023-02-06T06:27:48.044Z,14.20
2023-02-06T06:30:20.981Z,16.40
2023-02-06T06:32:53.639Z,14.60
2023-02-06T06:35:26.130Z,12.60
2023-02-06T06:37:58.054Z,20.90
2023-02-06T06:40:30.183Z,25.70
2023-02-06T06:43:02.132Z,19.60
2023-02-06T06:45:34.869Z,33.90
2023-02-06T06:48:07.365Z,31.10
2023-02-06T06:50:39.380Z,29.70
2023-02-06T06:53:11.325Z,30.70
2023-02-06T06:55:43.227Z,24.60
2023-02-06T06:58:15.121Z,16.40
2023-02-06T07:00:47.379Z,24.20
2023-02-06T07:03:19.306Z,23.00
2023-02-06T07:05:53.141Z,23.50
2023-02-06T07:08:25.451Z,18.60
2023-02-06T07:10:57.924Z,24.80
2023-02-06T07:13:32.048Z,18.30
2023-02-06T07:16:04.382Z,22.60
2023-02-06T07:18:36.620Z,21.40
2023-02-06T07:21:09.889Z,19.00
2023-02-06T07:23:44.523Z,14.50
2023-02-06T07:26:16.730Z,22.20
2023-02-06T07:28:49.858Z,19.80
2023-02-06T07:31:21.791Z,27.90
2023-02-06T07:33:53.853Z,38.90
2023-02-06T07:36:26.087Z,30.40
2023-02-06T07:38:57.951Z,32.40
2023-02-06T07:41:30.141Z,24.80
2023-02-06T07:44:02.129Z,18.00
2023-02-06T07:46:37.602Z,16.10
2023-02-06T07:49:09.872Z,23.70
2023-02-06T07:51:42.064Z,19.40
2023-02-06T07:54:14.033Z,20.20
2023-02-06T07:56:46.149Z,18.70
2023-02-06T07:59:18.059Z,16.30
2023-02-06T08:01:50.009Z,23.30
2023-02-06T08:04:22.329Z,19.50
2023-02-06T08:06:59.722Z,14.40
2023-02-06T08:09:31.950Z,21.70
2023-02-06T08:12:04.019Z,14.40
2023-02-06T08:14:35.839Z,7.00
2023-02-06T08:17:09.567Z,18.60
2023-02-06T08:19:41.487Z,12.30
2023-02-06T08:22:13.691Z,22.60
2023-02-06T08:24:46.292Z,16.10
2023-02-06T08:27:18.385Z,16.10
2023-02-06T08:29:51.835Z,12.50
2023-02-06T08:32:25.802Z,20.30
2023-02-06T08:34:57.627Z,17.90
2023-02-06T08:37:30.141Z,19.50
2023-02-06T08:40:02.313Z,16.70
2023-02-06T08:42:34.899Z,23.50
2023-02-06T08:45:07.697Z,17.40
2023-02-06T08:47:40.248Z,21.50
2023-02-06T08:50:12.455Z,22.80
2023-02-06T08:52:44.646Z,22.10
2023-02-06T08:55:16.720Z,22.10
2023-02-06T08:57:48.911Z,20.90
2023-02-06T09:00:23.107Z,20.80
2023-02-06T09:02:56.123Z,18.50
2023-02-06T09:05:28.203Z,19.70
2023-02-06T09:08:00.492Z,22.10
2023-02-06T09:10:32.884Z,19.10
2023-02-06T09:13:05.794Z,25.30
2023-02-06T09:15:38.104Z,18.50
2023-02-06T09:18:10.423Z,26.10
2023-02-06T09:20:42.343Z,30.80
2023-02-06T09:23:14.439Z,26.40
2023-02-06T09:25:46.353Z,24.00
2023-02-06T09:28:18.706Z,26.10
2023-02-06T09:30:50.903Z,19.70
2023-02-06T09:33:22.987Z,22.90
2023-02-06T09:36:04.094Z,23.10
2023-02-06T09:38:36.656Z,26.50
2023-02-06T09:41:19.017Z,21.40
2023-02-06T09:43:54.015Z,21.00
2023-02-06T09:46:31.512Z,16.70
2023-02-06T09:49:10.560Z,20.60
2023-02-06T09:51:56.954Z,17.80
2023-02-06T09:54:37.415Z,19.80
2023-02-06T09:57:12.651Z,18.70
2023-02-06T09:59:49.369Z,13.10
2023-02-06T10:02:42.543Z,13.80
2023-02-06T10:05:23.860Z,14.40
2023-02-06T10:08:08.984Z,10.00
2023-02-06T10:10:43.753Z,12.90
2023-02-06T10:13:21.095Z,14.60
2023-02-06T10:15:56.854Z,10.30
2023-02-06T10:18:33.597Z,12.70
2023-02-06T10:21:12.132Z,14.70
2023-02-06T10:23:47.665Z,12.40
2023-02-06T10:26:22.605Z,12.70
2023-02-06T10:28:57.448Z,10.70
2023-02-06T10:31:45.346Z,9.80
2023-02-06T10:34:35.792Z,13.30
2023-02-06T10:37:25.454Z,12.90
2023-02-06T10:40:05.678Z,10.80
2023-02-06T10:42:48.095Z,13.40
2023-02-06T10:45:32.851Z,12.10
2023-02-06T10:48:10.324Z,10.10
2023-02-06T10:50:46.041Z,13.40
2023-02-06T10:53:21.791Z,9.20
2023-02-06T10:55:56.729Z,9.20
2023-02-06T10:58:32.067Z,11.30
2023-02-06T11:01:13.850Z,8.00
2023-02-06T11:04:04.148Z,10.10
2023-02-06T11:06:40.306Z,8.60
2023-02-06T11:09:13.344Z,11.90
2023-02-06T11:11:49.202Z,9.70
2023-02-06T11:14:25.278Z,11.30
2023-02-06T11:17:00.754Z,8.10
2023-02-06T11:19:36.902Z,7.90
2023-02-06T11:22:15.004Z,9.60
2023-02-06T11:28:00.989Z,13.80
2023-02-06T11:30:34.662Z,9.40
2023-02-06T11:33:05.420Z,7.50
2023-02-06T11:35:38.101Z,12.30
2023-02-06T11:38:14.662Z,8.20
2023-02-06T11:40:43.597Z,13.70
2023-02-06T11:43:21.153Z,10.50
2023-02-06T11:45:53.200Z,9.00
2023-02-06T11:48:37.180Z,10.80
2023-02-06T11:51:07.303Z,14.40
2023-02-06T11:53:36.722Z,10.40
2023-02-06T11:56:14.799Z,12.50
2023-02-06T11:58:43.904Z,15.40
2023-02-06T12:01:20.058Z,11.80
2023-02-06T12:03:55.306Z,15.20
2023-02-06T12:06:30.050Z,11.30
2023-02-06T12:09:00.418Z,20.50
2023-02-06T12:11:33.384Z,16.90
2023-02-06T12:14:05.108Z,21.00
2023-02-06T12:16:35.631Z,16.50
2023-02-06T12:19:11.177Z,17.60
2023-02-06T12:21:43.163Z,14.10
2023-02-06T12:24:23.487Z,21.20
2023-02-06T12:26:53.812Z,16.70
2023-02-06T12:29:26.077Z,17.80
2023-02-06T12:32:00.620Z,19.80
2023-02-06T12:34:41.834Z,19.50
2023-02-06T12:37:15.610Z,19.20
2023-02-06T12:39:46.489Z,19.10
2023-02-06T12:42:45.952Z,16.20
2023-02-06T12:45:25.458Z,20.30
2023-02-06T12:47:57.892Z,19.70
2023-02-06T12:50:30.374Z,16.30
2023-02-06T12:53:03.680Z,18.10
2023-02-06T12:55:39.164Z,18.90
2023-02-06T13:00:56.377Z,16.60
2023-02-06T13:03:33.869Z,20.60
2023-02-06T13:06:11.041Z,22.00
2023-02-06T13:08:43.999Z,16.10
2023-02-06T13:11:24.697Z,11.80
2023-02-06T13:14:03.461Z,14.60
2023-02-06T13:16:43.597Z,16.40
2023-02-06T13:19:26.375Z,17.50
2023-02-06T13:22:35.634Z,9.80
2023-02-06T13:25:52.479Z,15.20
2023-02-06T13:28:46.559Z,14.00
2023-02-06T13:31:27.931Z,16.60
2023-02-06T13:33:59.974Z,14.40
2023-02-06T13:36:46.334Z,17.90
2023-02-06T13:39:36.934Z,15.60
2023-02-06T13:42:32.304Z,16.40
2023-02-06T13:45:03.993Z,14.00
2023-02-06T13:48:06.457Z,14.40
2023-02-06T13:50:48.242Z,15.40
2023-02-06T13:53:40.230Z,13.80
2023-02-06T13:56:29.217Z,11.60
2023-02-06T13:59:05.678Z,14.70
2023-02-06T14:01:35.739Z,12.60
2023-02-06T14:04:09.190Z,17.50
2023-02-06T14:07:02.459Z,10.40
2023-02-06T14:09:57.734Z,11.90
2023-02-06T14:12:39.451Z,16.60
2023-02-06T14:15:19.751Z,13.60
2023-02-06T14:18:08.424Z,15.80
2023-02-06T14:20:44.290Z,11.50
2023-02-06T14:23:19.804Z,15.00
2023-02-06T14:26:09.554Z,14.30
2023-02-06T14:28:45.734Z,11.50
2023-02-06T14:31:32.761Z,13.70
2023-02-06T14:34:12.414Z,15.10
2023-02-06T14:37:02.075Z,9.10
2023-02-06T14:39:56.879Z,14.60
2023-02-06T14:42:28.887Z,15.00
2023-02-06T14:45:06.307Z,13.60
2023-02-06T14:47:41.744Z,11.40
2023-02-06T14:50:17.430Z,20.10
2023-02-06T14:52:51.007Z,16.80
2023-02-06T14:55:35.308Z,18.30
2023-02-06T14:58:16.086Z,17.90
2023-02-06T15:00:44.616Z,19.70
2023-02-06T15:03:17.140Z,19.30
2023-02-06T15:05:45.895Z,18.10
2023-02-06T15:08:19.095Z,21.80
2023-02-06T15:10:48.313Z,23.00
2023-02-06T15:13:24.733Z,20.00
2023-02-06T15:15:55.280Z,17.80
2023-02-06T15:18:24.041Z,18.90
2023-02-06T15:20:55.046Z,21.90
2023-02-06T15:23:32.795Z,20.50
2023-02-06T15:26:05.705Z,24.30
2023-02-06T15:28:36.190Z,25.10
2023-02-06T15:31:14.317Z,28.60
2023-02-06T15:33:43.532Z,29.60
2023-02-06T15:36:23.032Z,24.80
2023-02-06T15:38:51.966Z,26.40
2023-02-06T15:41:20.876Z,28.20
2023-02-06T15:43:50.091Z,29.90
2023-02-06T15:46:18.555Z,32.00
2023-02-06T15:48:51.833Z,31.40
2023-02-06T15:51:23.245Z,32.70
2023-02-06T15:53:53.266Z,25.90
2023-02-06T15:56:25.020Z,21.60
2023-02-06T15:58:58.245Z,30.60
2023-02-06T16:01:27.489Z,33.70
2023-02-06T16:03:58.900Z,31.00
2023-02-06T16:06:27.648Z,27.00
2023-02-06T16:08:58.381Z,33.00
2023-02-06T16:11:46.883Z,32.60
2023-02-06T16:14:20.771Z,24.00
2023-02-06T16:17:01.396Z,22.00
2023-02-06T16:19:39.460Z,26.50
2023-02-06T16:22:16.634Z,25.60
2023-02-06T16:24:45.425Z,28.20
2023-02-06T16:27:19.172Z,26.30
2023-02-06T16:29:50.290Z,26.70
2023-02-06T16:32:22.720Z,26.20
2023-02-06T16:34:51.678Z,27.40
2023-02-06T16:37:23.995Z,31.30
2023-02-06T16:39:52.876Z,31.10
2023-02-06T16:42:23.080Z,30.60
2023-02-06T16:44:53.553Z,23.20
2023-02-06T16:47:22.374Z,30.20
2023-02-06T16:49:51.491Z,32.60
2023-02-06T16:52:24.860Z,29.30
2023-02-06T16:54:55.055Z,24.50
2023-02-06T16:57:28.286Z,25.30
2023-02-06T16:59:57.239Z,33.10
2023-02-06T17:02:26.596Z,28.10
2023-02-06T17:04:55.733Z,30.10
2023-02-06T17:07:25.677Z,22.90
2023-02-06T17:09:56.228Z,22.40
2023-02-06T17:12:25.647Z,21.80
2023-02-06T17:14:54.187Z,28.20
2023-02-06T17:17:23.227Z,22.60
2023-02-06T17:19:53.606Z,28.10
2023-02-06T17:22:22.003Z,28.30
2023-02-06T17:24:50.822Z,19.90
2023-02-06T17:27:21.316Z,29.90
2023-02-06T17:29:50.518Z,21.40
2023-02-06T17:32:21.712Z,22.90
2023-02-06T17:34:53.431Z,27.80
2023-02-06T17:37:21.917Z,22.90
2023-02-06T17:39:51.630Z,30.40
2023-02-06T17:42:22.561Z,24.60
2023-02-06T17:44:50.966Z,22.70
2023-02-06T17:47:19.783Z,21.90
2023-02-06T17:49:48.684Z,26.00
2023-02-06T17:52:17.423Z,25.20
2023-02-06T17:54:45.785Z,33.20
2023-02-06T17:57:14.312Z,20.90
2023-02-06T17:59:43.203Z,27.40
2023-02-06T18:02:13.837Z,31.40
2023-02-06T18:04:42.295Z,35.00
2023-02-06T18:07:10.798Z,28.70
2023-02-06T18:09:41.036Z,15.50
2023-02-06T18:12:10.589Z,26.00
2023-02-06T18:14:40.056Z,35.30
2023-02-06T18:17:08.905Z,26.80
2023-02-06T18:19:41.604Z,40.90
2023-02-06T18:22:11.653Z,19.30
2023-02-06T18:24:40.806Z,22.50
2023-02-06T18:27:10.037Z,32.80
2023-02-06T18:29:49.362Z,39.60
2023-02-06T18:32:19.268Z,29.10
2023-02-06T18:34:48.111Z,20.50
2023-02-06T18:37:16.473Z,26.70
2023-02-06T18:39:45.497Z,32.90
2023-02-06T18:42:32.285Z,27.40
2023-02-06T18:45:03.211Z,28.10
2023-02-06T18:47:33.130Z,39.00
2023-02-06T18:50:01.890Z,32.40
2023-02-06T18:52:30.343Z,22.00
2023-02-06T18:54:58.767Z,24.30
2023-02-06T18:57:27.259Z,31.50
2023-02-06T18:59:55.783Z,36.60
2023-02-06T19:02:24.191Z,34.00
2023-02-06T19:04:54.003Z,30.20
2023-02-06T19:07:22.701Z,28.00
2023-02-06T19:09:51.552Z,25.40
2023-02-06T19:12:20.368Z,23.40
2023-02-06T19:14:48.914Z,29.30
2023-02-06T19:17:17.290Z,26.50
2023-02-06T19:19:45.822Z,29.10
2023-02-06T19:22:14.292Z,26.90
2023-02-06T19:24:43.914Z,20.80
2023-02-06T19:27:13.356Z,17.50
2023-02-06T19:29:41.864Z,18.50
2023-02-06T19:32:10.961Z,26.70
2023-02-06T19:34:40.491Z,18.70
2023-02-06T19:37:09.932Z,28.50
2023-02-06T19:39:39.770Z,14.40
2023-02-06T19:42:10.219Z,25.10
2023-02-06T19:44:38.931Z,21.00
2023-02-06T19:47:08.284Z,21.30
2023-02-06T19:49:37.056Z,18.20
2023-02-06T19:52:05.628Z,15.40
2023-02-06T19:54:34.060Z,24.20
2023-02-06T19:57:02.646Z,24.00
2023-02-06T19:59:33.461Z,19.90
2023-02-06T20:02:02.667Z,17.80
2023-02-06T20:04:34.290Z,17.50
2023-02-06T20:07:02.975Z,20.60
2023-02-06T20:09:31.847Z,15.90
2023-02-06T20:12:01.161Z,18.40
2023-02-06T20:14:30.238Z,18.30
2023-02-06T20:16:59.090Z,21.40
2023-02-06T20:19:31.177Z,17.10
2023-02-06T20:22:02.258Z,20.60
2023-02-06T20:24:32.076Z,20.80
2023-02-06T20:27:02.329Z,18.60
2023-02-06T20:29:33.037Z,23.10
2023-02-06T20:32:02.044Z,17.80
2023-02-06T20:34:31.207Z,18.60
2023-02-06T20:36:59.852Z,14.50
2023-02-06T20:39:31.421Z,15.20
2023-02-06T20:41:59.906Z,15.20
2023-02-06T20:44:28.754Z,16.40
2023-02-06T20:46:57.272Z,18.30
2023-02-06T20:49:27.700Z,23.50
2023-02-06T20:51:57.464Z,15.20
2023-02-06T20:54:27.040Z,13.00
2023-02-06T20:56:59.106Z,16.60
2023-02-06T20:59:28.064Z,13.50
2023-02-06T21:02:00.498Z,22.40
2023-02-06T21:04:32.946Z,17.50
2023-02-06T21:07:05.723Z,22.10
2023-02-06T21:09:34.644Z,19.30
2023-02-06T21:12:06.880Z,16.50
2023-02-06T21:14:38.833Z,20.40
2023-02-06T21:17:07.892Z,21.60
2023-02-06T21:19:37.796Z,26.20
2023-02-06T21:22:06.173Z,15.60
2023-02-06T21:24:34.764Z,18.30
2023-02-06T21:27:03.658Z,23.70
2023-02-06T21:29:32.083Z,15.70
2023-02-06T21:32:12.713Z,19.20
2023-02-06T21:34:42.894Z,20.70
2023-02-06T21:37:11.639Z,20.30
2023-02-06T21:39:40.508Z,18.80
2023-02-06T21:42:09.914Z,18.00
2023-02-06T21:44:38.389Z,23.00
2023-02-06T21:47:09.233Z,20.90
2023-02-06T21:49:37.959Z,13.60
2023-02-06T21:52:06.437Z,24.00
2023-02-06T21:54:34.870Z,26.60
2023-02-06T21:57:04.002Z,26.60
2023-02-06T21:59:33.474Z,27.50
2023-02-06T22:02:02.015Z,11.80
2023-02-06T22:04:30.745Z,23.10
2023-02-06T22:06:59.231Z,27.30
2023-02-06T22:09:27.665Z,19.90
2023-02-06T22:11:56.197Z,14.30
2023-02-06T22:14:24.928Z,17.50
2023-02-06T22:16:53.410Z,23.50
2023-02-06T22:19:21.910Z,22.70
2023-02-06T22:21:50.402Z,21.40
2023-02-06T22:24:18.974Z,19.60
2023-02-06T22:26:47.607Z,20.30
2023-02-06T22:29:17.555Z,29.30
2023-02-06T22:31:47.790Z,30.70
2023-02-06T22:34:17.767Z,27.30
2023-02-06T22:36:46.553Z,21.90
2023-02-06T22:39:16.608Z,19.30
2023-02-06T22:41:46.159Z,14.70
2023-02-06T22:44:16.041Z,21.90
2023-02-06T22:46:47.396Z,23.40
2023-02-06T22:49:16.352Z,27.80
2023-02-06T22:51:45.469Z,23.10
2023-02-06T22:54:15.144Z,23.80
2023-02-06T22:56:44.146Z,13.60
2023-02-06T22:59:16.245Z,18.90
2023-02-06T23:01:48.774Z,16.80
2023-02-06T23:04:19.609Z,13.40
2023-02-06T23:06:48.815Z,17.70
2023-02-06T23:09:19.437Z,19.00
2023-02-06T23:11:48.382Z,22.70
2023-02-06T23:14:18.776Z,23.50
2023-02-06T23:16:47.901Z,23.10
2023-02-06T23:19:17.125Z,28.30
2023-02-06T23:21:47.794Z,20.50
2023-02-06T23:24:16.494Z,18.40
2023-02-06T23:26:48.307Z,17.50
2023-02-06T23:29:18.179Z,18.90
2023-02-06T23:31:47.878Z,16.10
2023-02-06T23:34:17.273Z,22.30
2023-02-06T23:36:46.476Z,27.80
2023-02-06T23:39:15.172Z,16.50
2023-02-06T23:41:43.934Z,23.80
2023-02-06T23:44:13.088Z,19.10
2023-02-06T23:46:42.052Z,19.10
2023-02-06T23:49:10.732Z,28.20
2023-02-06T23:51:39.476Z,21.90
2023-02-06T23:54:08.551Z,23.60
2023-02-06T23:56:39.561Z,15.70
2023-02-06T23:59:08.083Z,19.60
